createdAt,value
2019-04-20T00:02:19.350Z,11.70
2019-04-20T00:04:47.888Z,11.50
2019-04-20T00:07:18.759Z,11.40
2019-04-20T00:09:55.432Z,11.20
2019-04-20T00:12:25.424Z,11.10
2019-04-20T00:14:48.086Z,11.30
2019-04-20T00:17:17.857Z,11.20
2019-04-20T00:19:50.437Z,11.00
2019-04-20T00:22:24.654Z,10.80
2019-04-20T00:24:58.117Z,10.70
2019-04-20T00:27:42.773Z,10.50
2019-04-20T00:30:06.741Z,10.20
2019-04-20T00:32:41.298Z,10.20
2019-04-20T00:34:56.313Z,10.10
2019-04-20T00:37:25.365Z,10.00
2019-04-20T00:39:55.976Z,9.90
2019-04-20T00:42:33.100Z,9.70
2019-04-20T00:45:03.064Z,9.50
2019-04-20T00:47:37.577Z,9.20
2019-04-20T00:50:08.000Z,9.00
2019-04-20T00:52:43.760Z,9.00
2019-04-20T00:54:58.021Z,8.80
2019-04-20T00:57:38.072Z,8.80
2019-04-20T01:00:17.789Z,8.90
2019-04-20T01:02:40.639Z,9.00
2019-04-20T01:05:15.458Z,9.00
2019-04-20T01:07:43.141Z,9.00
2019-04-20T01:10:15.176Z,9.10
2019-04-20T01:12:45.679Z,9.10
2019-04-20T01:15:24.510Z,9.10
2019-04-20T01:17:45.783Z,8.80
2019-04-20T01:20:14.968Z,8.50
2019-04-20T01:22:53.805Z,8.40
2019-04-20T01:25:23.090Z,8.20
2019-04-20T01:28:05.465Z,8.00
2019-04-20T01:30:25.240Z,7.80
2019-04-20T01:33:02.553Z,7.40
2019-04-20T01:35:35.645Z,7.10
2019-04-20T01:38:06.924Z,7.00
2019-04-20T01:40:17.378Z,6.80
2019-04-20T01:42:46.761Z,6.50
2019-04-20T01:45:22.449Z,6.20
2019-04-20T01:47:52.356Z,5.90
2019-04-20T01:50:24.700Z,5.70
2019-04-20T01:52:58.279Z,5.50
2019-04-20T01:55:45.470Z,5.30
2019-04-20T01:58:17.560Z,5.30
2019-04-20T02:00:40.167Z,5.40
2019-04-20T02:03:31.336Z,5.50
2019-04-20T02:06:03.400Z,5.70
2019-04-20T02:08:29.412Z,5.80
2019-04-20T02:11:00.312Z,5.70
2019-04-20T02:13:34.751Z,5.70
2019-04-20T02:16:10.092Z,5.60
2019-04-20T02:18:40.068Z,5.60
2019-04-20T02:21:19.846Z,5.50
2019-04-20T02:23:42.101Z,5.40
2019-04-20T02:26:01.198Z,5.40
2019-04-20T02:28:56.881Z,5.50
2019-04-20T02:32:03.307Z,5.40
2019-04-20T02:34:07.006Z,5.20
2019-04-20T02:36:52.611Z,5.00
2019-04-20T02:42:12.088Z,4.70
2019-04-20T02:44:40.395Z,4.60
2019-04-20T02:47:07.501Z,4.50
2019-04-20T02:49:37.666Z,4.50
2019-04-20T02:52:02.656Z,4.50
2019-04-20T02:54:26.612Z,4.40
2019-04-20T03:01:55.289Z,4.00
2019-04-20T03:04:19.227Z,3.90
2019-04-20T03:06:54.832Z,3.90
2019-04-20T03:09:32.476Z,3.80
2019-04-20T03:12:06.170Z,3.70
2019-04-20T03:14:29.320Z,3.80
2019-04-20T03:17:08.582Z,3.90
2019-04-20T03:19:23.398Z,4.00
2019-04-20T03:22:05.168Z,4.00
2019-04-20T03:24:38.742Z,4.10
2019-04-20T03:26:59.860Z,4.20
2019-04-20T03:29:51.010Z,4.20
2019-04-20T03:32:57.973Z,4.30
2019-04-20T03:37:28.082Z,4.00
2019-04-20T03:39:46.417Z,3.90
2019-04-20T03:42:02.196Z,3.70
2019-04-20T03:44:34.005Z,3.60
2019-04-20T03:47:07.764Z,3.50
2019-04-20T03:49:55.005Z,3.40
2019-04-20T03:52:36.468Z,3.50
2019-04-20T03:55:16.555Z,3.50
2019-04-20T03:57:51.358Z,3.70
2019-04-20T04:00:42.433Z,3.70
2019-04-20T04:03:39.181Z,3.70
2019-04-20T04:05:56.187Z,3.70
2019-04-20T04:08:23.713Z,3.70
2019-04-20T04:11:06.523Z,3.70
2019-04-20T04:13:18.595Z,3.70
2019-04-20T04:15:55.632Z,3.70
2019-04-20T04:18:28.009Z,3.60
2019-04-20T04:20:59.516Z,3.50
2019-04-20T04:23:40.902Z,3.50
2019-04-20T04:26:19.557Z,3.50
2019-04-20T04:28:40.719Z,3.50
2019-04-20T04:31:16.324Z,3.50
2019-04-20T04:36:12.974Z,3.50
2019-04-20T04:38:48.712Z,3.50
2019-04-20T04:41:19.968Z,3.50
2019-04-20T04:43:44.098Z,3.50
2019-04-20T04:45:55.623Z,3.50
2019-04-20T04:48:31.059Z,3.50
2019-04-20T04:51:02.365Z,3.50
2019-04-20T04:53:39.585Z,3.60
2019-04-20T04:56:02.820Z,3.70
2019-04-20T04:58:26.069Z,3.80
2019-04-20T05:01:03.784Z,3.90
2019-04-20T05:03:47.670Z,4.00
2019-04-20T05:06:14.316Z,4.20
2019-04-20T05:08:37.820Z,4.50
2019-04-20T05:11:02.553Z,4.90
2019-04-20T05:13:38.757Z,5.30
2019-04-20T05:16:15.860Z,6.00
2019-04-20T05:18:57.884Z,7.00
2019-04-20T05:21:25.983Z,8.20
2019-04-20T05:23:49.178Z,9.10
2019-04-20T05:26:39.785Z,9.80
2019-04-20T05:29:02.527Z,10.30
2019-04-20T05:31:23.464Z,10.70
2019-04-20T05:34:15.966Z,11.30
2019-04-20T05:36:41.262Z,11.60
2019-04-20T05:39:25.165Z,11.60
2019-04-20T05:41:44.055Z,11.80
2019-04-20T05:44:12.827Z,12.50
2019-04-20T05:46:48.200Z,12.90
2019-04-20T05:49:22.142Z,13.50
2019-04-20T05:51:47.730Z,14.20
2019-04-20T05:54:23.649Z,14.90
2019-04-20T05:56:52.705Z,15.60
2019-04-20T05:59:19.132Z,15.70
2019-04-20T06:01:57.665Z,16.10
2019-04-20T06:04:44.532Z,16.60
2019-04-20T06:06:58.071Z,17.10
2019-04-20T06:09:28.016Z,16.80
2019-04-20T06:12:07.610Z,16.90
2019-04-20T06:14:19.336Z,17.60
2019-04-20T06:17:04.754Z,18.10
2019-04-20T06:19:35.837Z,18.30
2019-04-20T06:22:14.907Z,18.70
2019-04-20T06:24:45.412Z,19.30
2019-04-20T06:27:08.281Z,19.80
2019-04-20T06:29:42.667Z,20.50
2019-04-20T06:32:24.473Z,20.80
2019-04-20T06:34:53.472Z,21.20
2019-04-20T06:37:10.112Z,21.80
2019-04-20T06:42:14.832Z,23.10
2019-04-20T06:44:41.328Z,23.30
2019-04-20T06:47:18.761Z,23.50
2019-04-20T06:49:42.189Z,24.00
2019-04-20T06:52:26.181Z,24.60
2019-04-20T06:55:03.465Z,25.00
2019-04-20T06:57:52.883Z,24.80
2019-04-20T07:00:14.671Z,23.20
2019-04-20T07:05:17.474Z,20.80
2019-04-20T07:07:43.425Z,20.00
2019-04-20T07:10:15.133Z,20.40
2019-04-20T07:12:37.907Z,19.40
2019-04-20T07:14:58.828Z,19.40
2019-04-20T07:20:17.298Z,19.30
2019-04-20T07:22:54.335Z,18.60
2019-04-20T07:25:26.199Z,19.30
2019-04-20T07:27:58.261Z,19.50
2019-04-20T07:30:29.621Z,19.70
2019-04-20T07:32:57.954Z,20.00
2019-04-20T07:35:30.523Z,21.00
2019-04-20T07:38:16.573Z,22.40
2019-04-20T07:40:28.996Z,22.80
2019-04-20T07:45:33.479Z,24.00
2019-04-20T07:48:09.034Z,25.50
2019-04-20T07:50:25.261Z,25.30
2019-04-20T07:52:51.428Z,25.00
2019-04-20T07:57:57.706Z,24.00
2019-04-20T08:03:28.406Z,23.90
2019-04-20T08:05:45.809Z,24.60
2019-04-20T08:08:27.138Z,24.60
2019-04-20T08:10:51.506Z,25.50
2019-04-20T08:13:36.508Z,26.60
2019-04-20T08:16:00.636Z,26.00
2019-04-20T08:18:35.030Z,25.20
2019-04-20T08:21:06.459Z,25.20
2019-04-20T08:23:31.723Z,24.40
2019-04-20T08:25:49.397Z,22.90
2019-04-20T08:28:31.549Z,23.00
2019-04-20T08:31:09.460Z,22.90
2019-04-20T08:33:58.201Z,23.60
2019-04-20T08:36:22.873Z,23.10
2019-04-20T08:39:14.093Z,23.50
2019-04-20T08:41:19.394Z,23.30
2019-04-20T08:43:58.960Z,22.90
2019-04-20T08:46:30.523Z,23.10
2019-04-20T08:48:50.873Z,23.60
2019-04-20T08:51:25.858Z,23.80
2019-04-20T08:53:53.022Z,23.10
2019-04-20T08:56:18.785Z,22.90
2019-04-20T08:58:36.221Z,23.00
2019-04-20T09:01:08.709Z,24.10
2019-04-20T09:03:46.295Z,23.90
2019-04-20T09:06:23.836Z,23.70
2019-04-20T09:08:50.319Z,23.20
2019-04-20T09:11:24.985Z,22.80
2019-04-20T09:13:43.076Z,23.20
2019-04-20T09:16:09.100Z,23.30
2019-04-20T09:18:50.194Z,23.40
2019-04-20T09:21:26.710Z,23.60
2019-04-20T09:24:11.798Z,23.10
2019-04-20T09:26:37.681Z,23.30
2019-04-20T09:29:07.266Z,23.10
2019-04-20T09:31:39.254Z,23.60
2019-04-20T09:34:13.327Z,23.60
2019-04-20T09:36:45.798Z,23.90
2019-04-20T09:39:16.436Z,23.90
2019-04-20T09:42:00.781Z,23.80
2019-04-20T09:44:19.930Z,23.70
2019-04-20T09:46:54.222Z,23.30
2019-04-20T09:49:33.165Z,23.30
2019-04-20T09:52:08.074Z,23.50
2019-04-20T09:54:35.817Z,24.10
2019-04-20T09:57:10.454Z,24.50
2019-04-20T09:59:38.247Z,24.00
2019-04-20T10:02:04.771Z,24.40
2019-04-20T10:04:23.768Z,24.90
2019-04-20T10:06:52.884Z,25.40
2019-04-20T10:09:27.909Z,25.00
2019-04-20T10:11:53.110Z,25.30
2019-04-20T10:14:22.631Z,25.20
2019-04-20T10:16:51.900Z,25.10
2019-04-20T10:19:26.546Z,25.30
2019-04-20T10:21:51.009Z,25.40
2019-04-20T10:24:20.893Z,24.50
2019-04-20T10:26:50.460Z,24.40
2019-04-20T10:29:19.693Z,25.40
2019-04-20T10:31:54.666Z,25.10
2019-04-20T10:34:22.079Z,24.70
2019-04-20T10:36:51.438Z,24.60
2019-04-20T10:39:22.623Z,24.30
2019-04-20T10:41:56.257Z,23.90
2019-04-20T10:44:23.011Z,23.80
2019-04-20T10:46:53.256Z,24.20
2019-04-20T10:49:22.831Z,24.20
2019-04-20T10:51:51.730Z,24.00
2019-04-20T10:54:20.778Z,24.70
2019-04-20T10:56:49.797Z,25.60
2019-04-20T10:59:19.354Z,25.60
2019-04-20T11:01:49.755Z,25.40
2019-04-20T11:04:18.838Z,25.30
2019-04-20T11:06:48.105Z,25.20
2019-04-20T11:09:18.497Z,24.80
2019-04-20T11:11:48.267Z,24.40
2019-04-20T11:14:25.787Z,25.00
2019-04-20T11:16:48.531Z,24.40
2019-04-20T11:19:18.765Z,24.70
2019-04-20T11:21:48.196Z,24.10
2019-04-20T11:24:18.318Z,23.90
2019-04-20T11:26:47.241Z,24.70
2019-04-20T11:29:16.217Z,24.70
2019-04-20T11:31:49.482Z,25.60
2019-04-20T11:34:25.186Z,25.40
2019-04-20T11:36:45.859Z,24.80
2019-04-20T11:39:14.825Z,25.50
2019-04-20T11:41:43.848Z,25.80
2019-04-20T11:44:13.759Z,26.00
2019-04-20T11:46:42.992Z,26.50
2019-04-20T11:49:13.133Z,25.10
2019-04-20T11:51:43.452Z,24.20
2019-04-20T11:54:12.618Z,24.60
2019-04-20T11:56:45.106Z,25.40
2019-04-20T11:59:12.595Z,25.00
2019-04-20T12:02:00.517Z,25.30
2019-04-20T12:04:40.418Z,25.80
2019-04-20T12:06:58.998Z,25.40
2019-04-20T12:09:29.350Z,25.80
2019-04-20T12:12:09.298Z,25.80
2019-04-20T12:14:28.573Z,26.50
2019-04-20T12:16:57.567Z,26.90
2019-04-20T12:19:27.020Z,27.00
2019-04-20T12:21:55.982Z,27.30
2019-04-20T12:24:24.742Z,27.00
2019-04-20T12:26:54.580Z,27.10
2019-04-20T12:29:23.855Z,27.00
2019-04-20T12:31:55.390Z,26.90
2019-04-20T12:34:24.425Z,27.30
2019-04-20T12:36:53.364Z,27.20
2019-04-20T12:39:22.489Z,27.50
2019-04-20T12:41:58.175Z,27.80
2019-04-20T12:44:24.140Z,27.60
2019-04-20T12:46:54.380Z,27.00
2019-04-20T12:49:23.502Z,26.10
2019-04-20T12:51:59.231Z,25.90
2019-04-20T12:54:22.974Z,25.70
2019-04-20T12:56:52.987Z,26.50
2019-04-20T12:59:21.813Z,26.70
2019-04-20T13:01:51.386Z,25.90
2019-04-20T13:04:20.669Z,25.90
2019-04-20T13:06:54.645Z,25.80
2019-04-20T13:09:21.029Z,26.00
2019-04-20T13:11:59.173Z,26.50
2019-04-20T13:14:38.256Z,27.90
2019-04-20T13:17:08.255Z,28.10
2019-04-20T13:19:37.523Z,27.30
2019-04-20T13:22:07.377Z,27.40
2019-04-20T13:24:36.970Z,27.30
2019-04-20T13:27:07.063Z,27.40
2019-04-20T13:29:38.090Z,27.60
2019-04-20T13:32:07.673Z,27.50
2019-04-20T13:34:36.693Z,27.40
2019-04-20T13:37:08.352Z,27.90
2019-04-20T13:39:40.662Z,27.50
2019-04-20T13:42:14.085Z,27.30
2019-04-20T13:44:39.041Z,26.80
2019-04-20T13:47:10.982Z,26.00
2019-04-20T13:49:41.046Z,25.60
2019-04-20T13:52:10.801Z,25.70
2019-04-20T13:54:40.116Z,25.90
2019-04-20T13:57:11.190Z,26.30
2019-04-20T13:59:41.947Z,26.30
2019-04-20T14:02:33.159Z,26.20
2019-04-20T14:05:04.527Z,26.30
2019-04-20T14:07:35.574Z,26.70
2019-04-20T14:10:05.987Z,26.90
2019-04-20T14:12:37.522Z,26.10
2019-04-20T14:15:08.984Z,25.60
2019-04-20T14:17:39.130Z,26.10
2019-04-20T14:20:14.970Z,26.90
2019-04-20T14:22:41.008Z,27.60
2019-04-20T14:25:11.149Z,27.90
2019-04-20T14:27:40.225Z,27.90
2019-04-20T14:30:10.952Z,27.50
2019-04-20T14:32:40.921Z,26.60
2019-04-20T14:35:11.242Z,26.30
2019-04-20T14:37:41.358Z,26.60
2019-04-20T14:40:12.538Z,26.70
2019-04-20T14:42:46.270Z,26.00
2019-04-20T14:45:12.219Z,26.70
2019-04-20T14:47:41.568Z,27.20
2019-04-20T14:50:13.652Z,27.30
2019-04-20T14:52:43.747Z,27.00
2019-04-20T14:55:15.647Z,26.00
2019-04-20T14:57:43.677Z,26.00
2019-04-20T15:00:31.892Z,25.60
2019-04-20T15:03:19.735Z,25.60
2019-04-20T15:05:53.016Z,26.10
2019-04-20T15:08:24.885Z,26.40
2019-04-20T15:10:54.578Z,26.20
2019-04-20T15:13:24.555Z,26.30
2019-04-20T15:15:54.753Z,26.50
2019-04-20T15:18:25.288Z,26.70
2019-04-20T15:20:55.700Z,26.10
2019-04-20T15:23:26.183Z,25.80
2019-04-20T15:25:55.129Z,25.30
2019-04-20T15:28:24.193Z,25.20
2019-04-20T15:30:54.260Z,25.40
2019-04-20T15:33:23.271Z,25.50
2019-04-20T15:35:52.490Z,25.70
2019-04-20T15:38:22.910Z,26.30
2019-04-20T15:40:53.037Z,26.50
2019-04-20T15:43:25.900Z,25.80
2019-04-20T15:45:52.654Z,25.30
2019-04-20T15:48:21.987Z,24.90
2019-04-20T15:50:51.907Z,25.10
2019-04-20T15:53:21.804Z,25.00
2019-04-20T15:55:52.245Z,24.80
2019-04-20T15:58:22.597Z,24.70
2019-04-20T16:00:52.828Z,24.20
2019-04-20T16:03:39.619Z,24.10
2019-04-20T16:06:11.365Z,24.20
2019-04-20T16:08:42.097Z,24.80
2019-04-20T16:11:13.161Z,24.50
2019-04-20T16:13:47.560Z,23.90
2019-04-20T16:16:14.008Z,24.30
2019-04-20T16:18:43.357Z,24.60
2019-04-20T16:21:18.269Z,24.80
2019-04-20T16:23:48.571Z,25.00
2019-04-20T16:26:19.853Z,24.90
2019-04-20T16:28:49.984Z,24.90
2019-04-20T16:31:20.454Z,24.90
2019-04-20T16:33:50.872Z,24.70
2019-04-20T16:36:20.660Z,24.80
2019-04-20T16:38:49.512Z,24.90
2019-04-20T16:41:18.391Z,24.70
2019-04-20T16:43:48.530Z,24.30
2019-04-20T16:46:20.493Z,24.30
2019-04-20T16:48:48.462Z,24.10
2019-04-20T16:51:18.443Z,24.00
2019-04-20T16:53:47.947Z,24.00
2019-04-20T16:56:18.951Z,23.90
2019-04-20T16:58:48.314Z,24.00
2019-04-20T17:01:19.286Z,23.90
2019-04-20T17:03:54.491Z,24.00
2019-04-20T17:06:20.459Z,23.70
2019-04-20T17:08:51.355Z,23.40
2019-04-20T17:11:21.522Z,22.90
2019-04-20T17:13:53.744Z,22.50
2019-04-20T17:16:21.873Z,22.50
2019-04-20T17:18:51.957Z,22.50
2019-04-20T17:21:24.123Z,22.40
2019-04-20T17:23:51.451Z,22.40
2019-04-20T17:26:23.101Z,22.40
2019-04-20T17:29:01.764Z,22.40
2019-04-20T17:31:47.330Z,22.50
2019-04-20T17:34:37.692Z,22.20
2019-04-20T17:36:48.480Z,21.90
2019-04-20T17:39:30.127Z,21.60
2019-04-20T17:42:03.406Z,21.40
2019-04-20T17:44:31.445Z,21.20
2019-04-20T17:47:00.659Z,21.10
2019-04-20T17:49:31.614Z,21.00
2019-04-20T17:52:14.269Z,20.80
2019-04-20T17:54:22.365Z,20.60
2019-04-20T17:56:52.193Z,20.40
2019-04-20T17:59:22.289Z,20.20
2019-04-20T18:02:10.252Z,19.90
2019-04-20T18:05:08.469Z,19.40
2019-04-20T18:07:35.401Z,19.00
2019-04-20T18:10:05.716Z,18.70
2019-04-20T18:12:26.052Z,18.20
2019-04-20T18:14:58.106Z,17.80
2019-04-20T18:17:29.342Z,17.30
2019-04-20T18:19:49.509Z,17.00
2019-04-20T18:22:19.526Z,16.60
2019-04-20T18:25:10.055Z,16.30
2019-04-20T18:27:37.286Z,16.00
2019-04-20T18:30:09.484Z,15.80
2019-04-20T18:32:33.753Z,15.50
2019-04-20T18:35:06.960Z,15.40
2019-04-20T18:37:34.841Z,15.10
2019-04-20T18:40:12.737Z,14.90
2019-04-20T18:42:43.454Z,14.70
2019-04-20T18:45:28.063Z,14.50
2019-04-20T18:48:04.688Z,14.40
2019-04-20T18:50:22.458Z,14.20
2019-04-20T18:52:42.330Z,14.10
2019-04-20T18:55:16.274Z,13.90
2019-04-20T18:57:43.454Z,13.70
2019-04-20T19:00:20.023Z,13.60
2019-04-20T19:02:50.166Z,13.50
2019-04-20T19:05:16.021Z,13.30
2019-04-20T19:07:52.766Z,13.20
2019-04-20T19:10:24.785Z,13.00
2019-04-20T19:12:58.898Z,12.90
2019-04-20T19:15:53.438Z,12.70
2019-04-20T19:18:18.307Z,12.60
2019-04-20T19:20:39.010Z,12.50
2019-04-20T19:23:08.452Z,12.30
2019-04-20T19:25:40.400Z,12.30
2019-04-20T19:28:08.854Z,12.20
2019-04-20T19:30:49.794Z,12.10
2019-04-20T19:33:24.415Z,11.70
2019-04-20T19:35:51.620Z,11.40
2019-04-20T19:38:18.629Z,11.40
2019-04-20T19:40:52.595Z,11.50
2019-04-20T19:43:22.064Z,11.80
2019-04-20T19:46:24.397Z,12.10
2019-04-20T19:48:25.458Z,12.10
2019-04-20T19:51:08.396Z,12.20
2019-04-20T19:53:30.462Z,12.20
2019-04-20T19:55:56.962Z,12.20
2019-04-20T19:58:26.402Z,12.20
2019-04-20T20:00:51.263Z,12.10
2019-04-20T20:03:19.349Z,12.00
2019-04-20T20:05:51.848Z,11.90
2019-04-20T20:08:23.898Z,12.10
2019-04-20T20:10:50.722Z,12.40
2019-04-20T20:13:20.443Z,12.60
2019-04-20T20:15:57.673Z,12.80
2019-04-20T20:18:35.366Z,12.90
2019-04-20T20:21:04.987Z,13.00
2019-04-20T20:23:20.721Z,12.80
2019-04-20T20:25:51.111Z,12.80
2019-04-20T20:28:32.259Z,12.80
2019-04-20T20:31:01.806Z,12.80
2019-04-20T20:33:39.693Z,13.10
2019-04-20T20:36:02.247Z,13.10
2019-04-20T20:38:27.924Z,13.00
2019-04-20T20:41:02.946Z,13.00
2019-04-20T20:43:39.815Z,12.90
2019-04-20T20:46:07.979Z,13.00
2019-04-20T20:48:38.722Z,13.10
2019-04-20T20:51:12.198Z,13.30
2019-04-20T20:53:39.750Z,13.30
2019-04-20T20:56:06.615Z,13.30
2019-04-20T20:58:40.686Z,13.00
2019-04-20T21:01:07.831Z,13.10
2019-04-20T21:03:32.264Z,13.40
2019-04-20T21:05:57.908Z,13.40
2019-04-20T21:08:26.736Z,13.30
2019-04-20T21:10:56.579Z,13.20
2019-04-20T21:13:34.479Z,13.30
2019-04-20T21:16:02.891Z,13.20
2019-04-20T21:18:43.543Z,13.10
2019-04-20T21:21:13.060Z,13.10
2019-04-20T21:23:36.806Z,13.10
2019-04-20T21:26:04.976Z,13.10
2019-04-20T21:28:36.080Z,13.10
2019-04-20T21:31:12.552Z,13.10
2019-04-20T21:33:38.102Z,13.20
2019-04-20T21:36:07.094Z,13.10
2019-04-20T21:38:40.840Z,12.90
2019-04-20T21:41:11.285Z,12.70
2019-04-20T21:43:40.770Z,12.60
2019-04-20T21:46:10.222Z,12.50
2019-04-20T21:48:51.417Z,12.40
2019-04-20T21:51:27.524Z,12.40
2019-04-20T21:53:40.388Z,12.40
2019-04-20T21:56:10.195Z,12.50
2019-04-20T21:58:46.552Z,12.50
2019-04-20T22:01:31.681Z,12.40
2019-04-20T22:03:54.500Z,12.30
2019-04-20T22:06:24.414Z,12.30
2019-04-20T22:08:59.788Z,12.30
2019-04-20T22:11:24.088Z,12.30
2019-04-20T22:13:54.525Z,12.20
2019-04-20T22:16:25.575Z,12.10
2019-04-20T22:19:10.309Z,12.00
2019-04-20T22:21:38.341Z,12.00
2019-04-20T22:24:06.235Z,12.10
2019-04-20T22:26:32.699Z,12.00
2019-04-20T22:28:56.306Z,11.90
2019-04-20T22:31:26.372Z,11.80
2019-04-20T22:33:56.356Z,11.70
2019-04-20T22:36:35.561Z,11.90
2019-04-20T22:39:15.675Z,12.20
2019-04-20T22:41:55.745Z,12.40
2019-04-20T22:44:20.697Z,12.40
2019-04-20T22:46:47.729Z,12.50
2019-04-20T22:49:33.582Z,12.50
2019-04-20T22:51:58.819Z,12.30
2019-04-20T22:54:36.306Z,12.20
2019-04-20T22:57:01.074Z,12.00
2019-04-20T22:59:23.321Z,12.10
2019-04-20T23:01:56.774Z,12.00
2019-04-20T23:04:22.466Z,11.90
2019-04-20T23:06:52.353Z,11.80
2019-04-20T23:09:22.636Z,11.80
2019-04-20T23:11:54.706Z,11.60
2019-04-20T23:14:22.513Z,11.60
2019-04-20T23:16:53.899Z,11.60
2019-04-20T23:19:35.703Z,11.50
2019-04-20T23:21:58.909Z,11.40
2019-04-20T23:24:23.680Z,11.30
2019-04-20T23:26:53.189Z,11.30
2019-04-20T23:29:27.234Z,11.30
2019-04-20T23:31:59.411Z,11.20
2019-04-20T23:34:26.690Z,11.10
2019-04-20T23:36:54.669Z,10.90
2019-04-20T23:39:34.021Z,10.80
2019-04-20T23:42:00.398Z,10.50
2019-04-20T23:44:48.266Z,10.70
2019-04-20T23:47:24.115Z,10.60
2019-04-20T23:50:16.237Z,10.30
2019-04-20T23:52:49.471Z,10.00
2019-04-20T23:55:05.857Z,9.60
2019-04-20T23:57:31.607Z,9.30
